createdAt,value
2019-04-27T00:02:18.176Z,20.67
2019-04-27T00:05:35.334Z,18.40
2019-04-27T00:08:50.098Z,19.40
2019-04-27T00:11:49.514Z,18.10
2019-04-27T00:14:37.954Z,19.27
2019-04-27T00:17:48.671Z,18.30
2019-04-27T00:20:50.151Z,19.50
2019-04-27T00:23:38.292Z,18.40
2019-04-27T00:26:27.395Z,18.93
2019-04-27T00:29:15.599Z,18.83
2019-04-27T00:32:04.227Z,19.40
2019-04-27T00:34:53.238Z,17.30
2019-04-27T00:37:53.094Z,18.03
2019-04-27T00:40:45.099Z,17.70
2019-04-27T00:43:33.383Z,18.70
2019-04-27T00:46:22.806Z,17.43
2019-04-27T00:49:11.651Z,17.53
2019-04-27T00:51:59.874Z,17.03
2019-04-27T00:54:48.411Z,17.33
2019-04-27T00:58:01.683Z,17.20
2019-04-27T01:00:59.047Z,16.37
2019-04-27T01:03:53.301Z,15.33
2019-04-27T01:06:43.769Z,16.03
2019-04-27T01:09:33.867Z,15.87
2019-04-27T01:12:23.672Z,17.47
2019-04-27T01:15:13.586Z,15.60
2019-04-27T01:18:12.340Z,15.77
2019-04-27T01:20:51.983Z,15.20
2019-04-27T01:23:41.140Z,13.97
2019-04-27T01:26:40.283Z,13.77
2019-04-27T01:29:29.138Z,14.07
2019-04-27T01:32:18.619Z,12.80
2019-04-27T01:35:08.536Z,11.83
2019-04-27T01:37:58.811Z,11.77
2019-04-27T01:40:46.475Z,11.93
2019-04-27T01:43:34.337Z,12.53
2019-04-27T01:46:22.323Z,11.60
2019-04-27T01:49:10.562Z,11.83
2019-04-27T01:51:59.414Z,11.93
2019-04-27T01:54:49.400Z,9.70
2019-04-27T01:57:38.669Z,10.07
2019-04-27T02:00:39.609Z,10.00
2019-04-27T02:03:59.069Z,10.53
2019-04-27T02:06:49.907Z,9.80
2019-04-27T02:09:38.754Z,9.20
2019-04-27T02:12:26.580Z,10.20
2019-04-27T02:15:14.491Z,10.17
2019-04-27T02:18:03.320Z,10.20
2019-04-27T02:20:51.359Z,9.50
2019-04-27T02:23:39.407Z,10.20
2019-04-27T02:26:29.821Z,9.10
2019-04-27T02:29:42.403Z,9.30
2019-04-27T02:33:04.856Z,8.00
2019-04-27T02:35:52.403Z,7.90
2019-04-27T02:38:40.616Z,8.30
2019-04-27T02:41:29.724Z,9.87
2019-04-27T02:44:22.846Z,7.97
2019-04-27T02:47:10.903Z,8.27
2019-04-27T02:50:00.677Z,8.17
2019-04-27T02:52:50.070Z,8.60
2019-04-27T02:55:39.721Z,7.47
2019-04-27T02:58:28.417Z,7.70
2019-04-27T03:01:16.812Z,7.90
2019-04-27T03:04:04.710Z,8.03
2019-04-27T03:06:52.587Z,8.23
2019-04-27T03:09:40.803Z,7.83
2019-04-27T03:12:33.753Z,6.70
2019-04-27T03:15:36.612Z,6.90
2019-04-27T03:18:33.517Z,5.67
2019-04-27T03:21:24.707Z,5.23
2019-04-27T03:24:13.307Z,5.00
2019-04-27T03:27:02.853Z,4.40
2019-04-27T03:29:51.219Z,4.40
2019-04-27T03:32:42.960Z,4.10
2019-04-27T03:35:35.333Z,3.67
2019-04-27T03:38:19.723Z,4.17
2019-04-27T03:41:09.541Z,4.00
2019-04-27T03:43:59.504Z,3.40
2019-04-27T03:46:49.629Z,3.70
2019-04-27T03:49:40.892Z,3.53
2019-04-27T03:52:36.319Z,3.50
2019-04-27T03:55:27.824Z,3.70
2019-04-27T03:58:23.887Z,3.50
2019-04-27T04:01:11.730Z,3.63
2019-04-27T04:04:00.035Z,4.00
2019-04-27T04:06:49.476Z,4.10
2019-04-27T04:09:40.832Z,4.20
2019-04-27T04:12:56.050Z,3.67
2019-04-27T04:16:00.276Z,4.53
2019-04-27T04:19:03.436Z,4.50
2019-04-27T04:21:51.610Z,3.93
2019-04-27T04:24:39.932Z,4.70
2019-04-27T04:27:29.951Z,4.67
2019-04-27T04:30:19.914Z,4.10
2019-04-27T04:33:10.201Z,5.20
2019-04-27T04:35:59.619Z,5.27
2019-04-27T04:38:47.101Z,5.70
2019-04-27T04:41:43.631Z,5.27
2019-04-27T04:44:41.989Z,5.63
2019-04-27T04:47:40.742Z,5.00
2019-04-27T04:50:30.452Z,5.37
2019-04-27T04:53:20.616Z,4.63
2019-04-27T04:56:09.009Z,5.00
2019-04-27T04:58:59.831Z,4.20
2019-04-27T05:01:49.708Z,4.80
2019-04-27T05:04:36.707Z,3.50
2019-04-27T05:07:24.627Z,3.10
2019-04-27T05:10:12.677Z,3.60
2019-04-27T05:13:00.738Z,3.00
2019-04-27T05:15:48.892Z,3.07
2019-04-27T05:18:39.274Z,3.00
2019-04-27T05:21:31.398Z,2.67
2019-04-27T05:24:19.942Z,3.10
2019-04-27T05:27:09.207Z,2.47
2019-04-27T05:29:58.260Z,2.27
2019-04-27T05:32:46.168Z,2.83
2019-04-27T05:35:34.319Z,2.63
2019-04-27T05:38:22.710Z,3.53
2019-04-27T05:41:11.187Z,2.53
2019-04-27T05:44:18.441Z,2.70
2019-04-27T05:47:31.583Z,2.80
2019-04-27T05:50:21.986Z,2.77
2019-04-27T05:53:08.745Z,2.63
2019-04-27T05:55:57.056Z,3.27
2019-04-27T05:58:45.214Z,3.30
2019-04-27T06:01:33.179Z,3.70
2019-04-27T06:04:21.698Z,3.60
2019-04-27T06:07:09.603Z,3.53
2019-04-27T06:09:59.528Z,3.50
2019-04-27T06:12:48.501Z,3.00
2019-04-27T06:15:38.847Z,2.60
2019-04-27T06:18:27.207Z,2.57
2019-04-27T06:21:15.238Z,3.00
2019-04-27T06:24:04.027Z,3.00
2019-04-27T06:26:51.619Z,2.20
2019-04-27T06:29:40.913Z,3.10
2019-04-27T06:32:29.686Z,3.00
2019-04-27T06:35:18.632Z,2.80
2019-04-27T06:38:07.038Z,2.53
2019-04-27T06:40:54.944Z,3.53
2019-04-27T06:43:43.463Z,2.97
2019-04-27T06:46:31.071Z,2.90
2019-04-27T06:49:19.487Z,2.93
2019-04-27T06:52:08.675Z,2.90
2019-04-27T06:54:57.071Z,2.93
2019-04-27T06:57:45.043Z,3.10
2019-04-27T07:00:33.507Z,3.00
2019-04-27T07:03:21.771Z,3.37
2019-04-27T07:06:09.535Z,5.23
2019-04-27T07:08:59.785Z,3.83
2019-04-27T07:11:49.402Z,3.70
2019-04-27T07:14:50.321Z,3.70
2019-04-27T07:17:28.825Z,3.87
2019-04-27T07:20:16.555Z,4.27
2019-04-27T07:23:04.610Z,3.77
2019-04-27T07:25:52.547Z,4.60
2019-04-27T07:28:41.034Z,4.67
2019-04-27T07:31:31.747Z,4.43
2019-04-27T07:34:19.099Z,4.43
2019-04-27T07:37:09.294Z,4.47
2019-04-27T07:39:56.951Z,4.90
2019-04-27T07:42:46.148Z,4.97
2019-04-27T07:45:39.443Z,5.67
2019-04-27T07:48:28.643Z,5.80
2019-04-27T07:51:29.558Z,5.87
2019-04-27T07:54:06.827Z,5.43
2019-04-27T07:56:55.259Z,5.77
2019-04-27T07:59:43.952Z,6.90
2019-04-27T08:02:31.786Z,5.87
2019-04-27T08:05:20.566Z,7.33
2019-04-27T08:08:09.021Z,7.40
2019-04-27T08:10:57.307Z,6.97
2019-04-27T08:13:44.797Z,8.13
2019-04-27T08:16:33.267Z,7.30
2019-04-27T08:19:21.196Z,7.80
2019-04-27T08:22:09.781Z,6.80
2019-04-27T08:24:59.485Z,6.40
2019-04-27T08:28:15.856Z,5.80
2019-04-27T08:31:20.467Z,6.33
2019-04-27T08:34:27.274Z,6.60
2019-04-27T08:37:15.262Z,6.00
2019-04-27T08:40:03.782Z,5.83
2019-04-27T08:42:51.774Z,5.27
2019-04-27T08:45:39.402Z,5.77
2019-04-27T08:48:36.034Z,5.93
2019-04-27T08:51:16.792Z,5.30
2019-04-27T08:54:05.157Z,5.70
2019-04-27T08:56:53.408Z,5.50
2019-04-27T08:59:41.388Z,5.40
2019-04-27T09:02:39.812Z,5.50
2019-04-27T09:05:25.468Z,5.40
2019-04-27T09:08:29.118Z,5.30
2019-04-27T09:11:22.692Z,4.77
2019-04-27T09:14:16.551Z,5.30
2019-04-27T09:17:33.409Z,5.80
2019-04-27T09:20:24.212Z,6.17
2019-04-27T09:23:12.238Z,6.97
2019-04-27T09:26:00.755Z,6.70
2019-04-27T09:28:49.293Z,6.50
2019-04-27T09:31:39.438Z,7.23
2019-04-27T09:34:27.740Z,7.40
2019-04-27T09:37:15.995Z,6.33
2019-04-27T09:40:03.901Z,6.00
2019-04-27T09:42:52.072Z,5.90
2019-04-27T09:45:40.726Z,7.10
2019-04-27T09:48:28.999Z,8.57
2019-04-27T09:51:17.032Z,10.10
2019-04-27T09:54:05.898Z,11.50
2019-04-27T09:56:56.122Z,11.03
2019-04-27T09:59:46.033Z,10.60
2019-04-27T10:02:34.496Z,9.70
2019-04-27T10:05:22.718Z,10.43
2019-04-27T10:08:10.282Z,11.10
2019-04-27T10:10:58.184Z,8.00
2019-04-27T10:13:46.541Z,7.23
2019-04-27T10:16:36.577Z,8.40
2019-04-27T10:19:31.150Z,6.67
2019-04-27T10:22:15.972Z,7.10
2019-04-27T10:25:04.715Z,8.13
2019-04-27T10:27:58.983Z,6.83
2019-04-27T10:30:46.718Z,5.90
2019-04-27T10:33:35.884Z,5.70
2019-04-27T10:36:39.571Z,5.80
2019-04-27T10:39:27.862Z,6.03
2019-04-27T10:42:16.231Z,5.50
2019-04-27T10:45:06.276Z,4.63
2019-04-27T10:47:54.016Z,4.77
2019-04-27T10:50:42.437Z,5.10
2019-04-27T10:53:30.889Z,5.70
2019-04-27T10:56:18.951Z,5.40
2019-04-27T10:59:09.634Z,5.33
2019-04-27T11:01:57.108Z,5.63
2019-04-27T11:05:16.179Z,5.00
2019-04-27T11:08:03.723Z,6.47
2019-04-27T11:10:51.569Z,7.10
2019-04-27T11:13:39.486Z,7.13
2019-04-27T11:16:27.447Z,7.10
2019-04-27T11:19:16.863Z,7.37
2019-04-27T11:22:07.119Z,7.10
2019-04-27T11:24:56.407Z,8.20
2019-04-27T11:27:45.002Z,8.07
2019-04-27T11:30:33.612Z,7.27
2019-04-27T11:33:21.572Z,5.33
2019-04-27T11:36:27.591Z,5.60
2019-04-27T11:39:19.637Z,6.70
2019-04-27T11:42:06.080Z,6.77
2019-04-27T11:44:57.507Z,5.83
2019-04-27T11:47:44.412Z,4.80
2019-04-27T11:50:32.609Z,5.93
2019-04-27T11:53:23.053Z,5.60
2019-04-27T11:56:10.636Z,6.30
2019-04-27T11:58:58.427Z,6.13
2019-04-27T12:01:46.555Z,7.23
2019-04-27T12:04:36.418Z,7.20
2019-04-27T12:07:24.845Z,7.43
2019-04-27T12:10:13.453Z,5.30
2019-04-27T12:13:01.475Z,5.77
2019-04-27T12:15:49.412Z,6.50
2019-04-27T12:18:37.969Z,7.07
2019-04-27T12:21:26.930Z,6.33
2019-04-27T12:24:16.151Z,6.33
2019-04-27T12:27:20.351Z,7.20
2019-04-27T12:30:27.448Z,7.83
2019-04-27T12:33:15.287Z,8.90
2019-04-27T12:36:03.107Z,7.60
2019-04-27T12:38:52.000Z,6.60
2019-04-27T12:41:40.092Z,5.80
2019-04-27T12:44:27.747Z,6.00
2019-04-27T12:47:16.422Z,6.10
2019-04-27T12:50:06.174Z,5.23
2019-04-27T12:52:58.034Z,4.13
2019-04-27T12:55:59.571Z,4.47
2019-04-27T12:58:51.811Z,3.83
2019-04-27T13:01:40.259Z,3.50
2019-04-27T13:04:28.880Z,3.83
2019-04-27T13:07:17.424Z,4.40
2019-04-27T13:10:06.024Z,4.10
2019-04-27T13:12:53.951Z,2.70
2019-04-27T13:15:42.996Z,3.30
2019-04-27T13:18:30.873Z,2.53
2019-04-27T13:21:20.876Z,2.93
2019-04-27T13:24:08.542Z,3.53
2019-04-27T13:26:57.026Z,3.73
2019-04-27T13:29:46.650Z,3.20
2019-04-27T13:32:36.441Z,4.60
2019-04-27T13:35:25.852Z,2.90
2019-04-27T13:38:17.799Z,3.37
2019-04-27T13:41:11.795Z,4.00
2019-04-27T13:43:59.759Z,3.00
2019-04-27T13:47:06.207Z,2.93
2019-04-27T13:50:08.715Z,2.53
2019-04-27T13:52:57.030Z,3.60
2019-04-27T13:55:46.478Z,2.57
2019-04-27T13:58:34.267Z,2.20
2019-04-27T14:01:22.139Z,2.50
2019-04-27T14:04:10.767Z,3.43
2019-04-27T14:06:59.190Z,3.53
2019-04-27T14:09:48.579Z,3.40
2019-04-27T14:12:38.441Z,3.20
2019-04-27T14:15:26.255Z,2.70
2019-04-27T14:18:14.863Z,2.57
2019-04-27T14:21:02.412Z,3.00
2019-04-27T14:23:50.828Z,2.80
2019-04-27T14:26:39.796Z,2.50
2019-04-27T14:29:28.196Z,3.00
2019-04-27T14:32:16.228Z,2.63
2019-04-27T14:35:04.239Z,2.83
2019-04-27T14:37:52.550Z,3.17
2019-04-27T14:40:40.348Z,3.73
2019-04-27T14:43:28.743Z,3.87
2019-04-27T14:46:18.737Z,2.43
2019-04-27T14:49:07.158Z,2.67
2019-04-27T14:51:58.536Z,2.43
2019-04-27T14:54:50.228Z,2.47
2019-04-27T14:57:36.476Z,3.07
2019-04-27T15:00:25.832Z,2.50
2019-04-27T15:03:14.471Z,2.77
2019-04-27T15:06:02.515Z,3.30
2019-04-27T15:08:50.844Z,2.60
2019-04-27T15:11:39.246Z,3.40
2019-04-27T15:14:31.058Z,3.10
2019-04-27T15:17:23.352Z,2.60
2019-04-27T15:20:14.684Z,3.30
2019-04-27T15:23:02.665Z,2.80
2019-04-27T15:25:50.662Z,2.70
2019-04-27T15:28:40.122Z,2.77
2019-04-27T15:31:36.240Z,3.30
2019-04-27T15:34:35.783Z,2.33
2019-04-27T15:37:34.227Z,2.03
2019-04-27T15:40:43.745Z,2.10
2019-04-27T15:43:31.419Z,1.93
2019-04-27T15:46:19.417Z,2.53
2019-04-27T15:49:10.444Z,2.37
2019-04-27T15:51:58.423Z,2.20
2019-04-27T15:54:48.122Z,2.87
2019-04-27T15:57:35.934Z,2.90
2019-04-27T16:00:30.030Z,2.53
2019-04-27T16:03:18.494Z,2.70
2019-04-27T16:06:08.235Z,1.90
2019-04-27T16:08:56.839Z,2.40
2019-04-27T16:11:50.130Z,2.30
2019-04-27T16:14:36.448Z,2.33
2019-04-27T16:17:24.311Z,2.73
2019-04-27T16:20:22.082Z,2.50
2019-04-27T16:23:05.816Z,2.60
2019-04-27T16:25:55.087Z,2.03
2019-04-27T16:28:49.698Z,2.00
2019-04-27T16:31:36.055Z,2.20
2019-04-27T16:34:23.495Z,2.40
2019-04-27T16:37:13.969Z,2.20
2019-04-27T16:40:02.831Z,2.33
2019-04-27T16:42:54.343Z,1.63
2019-04-27T16:45:40.231Z,2.27
2019-04-27T16:48:34.334Z,2.17
2019-04-27T16:51:18.318Z,1.90
2019-04-27T16:54:06.281Z,1.77
2019-04-27T16:57:02.555Z,1.50
2019-04-27T16:59:50.610Z,2.47
2019-04-27T17:02:34.628Z,2.70
2019-04-27T17:05:24.427Z,2.70
2019-04-27T17:08:21.482Z,2.53
2019-04-27T17:11:08.304Z,3.80
2019-04-27T17:13:58.878Z,3.50
2019-04-27T17:16:59.460Z,4.00
2019-04-27T17:19:52.048Z,4.20
2019-04-27T17:22:40.123Z,4.20
2019-04-27T17:25:33.076Z,3.97
2019-04-27T17:28:18.490Z,3.27
2019-04-27T17:31:08.522Z,4.13
2019-04-27T17:34:00.567Z,4.80
2019-04-27T17:36:54.510Z,4.47
2019-04-27T17:39:38.881Z,2.93
2019-04-27T17:42:29.206Z,3.80
2019-04-27T17:45:16.463Z,3.13
2019-04-27T17:48:07.342Z,3.60
2019-04-27T17:50:55.885Z,3.50
2019-04-27T17:53:44.199Z,4.20
2019-04-27T17:56:35.887Z,4.13
2019-04-27T17:59:22.072Z,5.20
2019-04-27T18:02:10.514Z,4.00
2019-04-27T18:04:58.879Z,4.00
2019-04-27T18:07:48.575Z,4.40
2019-04-27T18:10:36.795Z,4.70
2019-04-27T18:13:25.493Z,4.53
2019-04-27T18:16:15.421Z,5.50
2019-04-27T18:19:18.546Z,4.93
2019-04-27T18:22:07.052Z,4.63
2019-04-27T18:25:07.440Z,5.80
2019-04-27T18:28:08.109Z,5.50
2019-04-27T18:31:05.214Z,5.80
2019-04-27T18:33:53.107Z,5.73
2019-04-27T18:36:43.871Z,6.10
2019-04-27T18:39:31.170Z,6.77
2019-04-27T18:42:23.263Z,8.63
2019-04-27T18:45:09.482Z,9.80
2019-04-27T18:48:06.665Z,10.47
2019-04-27T18:51:01.575Z,9.37
2019-04-27T18:53:49.962Z,10.43
2019-04-27T18:56:41.578Z,9.73
2019-04-27T18:59:29.067Z,9.07
2019-04-27T19:02:18.468Z,8.63
2019-04-27T19:05:08.875Z,8.33
2019-04-27T19:07:56.952Z,8.47
2019-04-27T19:10:45.059Z,8.30
2019-04-27T19:13:33.595Z,9.30
2019-04-27T19:16:22.431Z,10.33
2019-04-27T19:19:10.771Z,10.00
2019-04-27T19:21:59.020Z,8.60
2019-04-27T19:24:47.312Z,7.47
2019-04-27T19:28:08.438Z,8.27
2019-04-27T19:31:00.158Z,9.47
2019-04-27T19:33:48.769Z,8.60
2019-04-27T19:36:38.701Z,9.13
2019-04-27T19:39:28.598Z,7.80
2019-04-27T19:42:18.400Z,8.00
2019-04-27T19:45:06.867Z,7.77
2019-04-27T19:47:54.740Z,7.30
2019-04-27T19:50:42.239Z,7.37
2019-04-27T19:53:30.323Z,7.23
2019-04-27T19:56:19.390Z,9.10
2019-04-27T19:59:13.608Z,8.40
2019-04-27T20:02:04.671Z,9.63
2019-04-27T20:05:01.551Z,9.60
2019-04-27T20:07:49.850Z,9.90
2019-04-27T20:10:38.178Z,10.87
2019-04-27T20:13:26.447Z,9.30
2019-04-27T20:16:14.019Z,9.60
2019-04-27T20:19:02.367Z,8.80
2019-04-27T20:21:50.913Z,8.67
2019-04-27T20:24:41.393Z,8.47
2019-04-27T20:27:32.137Z,8.80
2019-04-27T20:30:21.007Z,8.73
2019-04-27T20:33:10.934Z,10.33
2019-04-27T20:35:58.835Z,9.10
2019-04-27T20:38:46.767Z,10.00
2019-04-27T20:41:34.903Z,12.20
2019-04-27T20:44:23.763Z,13.70
2019-04-27T20:47:11.960Z,15.00
2019-04-27T20:50:00.680Z,17.53
2019-04-27T20:52:53.733Z,18.13
2019-04-27T20:55:43.239Z,20.30
2019-04-27T20:58:31.750Z,20.17
2019-04-27T21:01:19.383Z,18.77
2019-04-27T21:04:07.364Z,17.13
2019-04-27T21:06:58.582Z,15.10
2019-04-27T21:09:47.282Z,13.77
2019-04-27T21:12:35.611Z,13.30
2019-04-27T21:15:24.226Z,11.30
2019-04-27T21:18:12.427Z,14.40
2019-04-27T21:21:01.228Z,10.90
2019-04-27T21:23:51.359Z,10.43
2019-04-27T21:26:39.002Z,8.53
2019-04-27T21:29:27.331Z,9.10
2019-04-27T21:32:15.711Z,11.70
2019-04-27T21:35:04.044Z,10.43
2019-04-27T21:37:51.622Z,8.33
2019-04-27T21:40:40.883Z,9.03
2019-04-27T21:43:29.423Z,8.60
2019-04-27T21:46:18.235Z,8.40
2019-04-27T21:49:06.964Z,9.10
2019-04-27T21:52:12.713Z,9.00
2019-04-27T21:54:58.739Z,9.53
2019-04-27T21:57:47.247Z,8.40
2019-04-27T22:00:55.635Z,10.10
2019-04-27T22:03:43.703Z,9.40
2019-04-27T22:06:32.478Z,9.47
2019-04-27T22:09:21.119Z,8.80
2019-04-27T22:12:11.093Z,9.27
2019-04-27T22:14:59.054Z,9.70
2019-04-27T22:17:47.007Z,9.20
2019-04-27T22:20:35.578Z,9.23
2019-04-27T22:23:33.248Z,9.77
2019-04-27T22:26:21.468Z,8.80
2019-04-27T22:29:12.031Z,10.77
2019-04-27T22:32:01.646Z,9.80
2019-04-27T22:34:50.103Z,9.47
2019-04-27T22:37:38.651Z,8.80
2019-04-27T22:40:50.881Z,10.63
2019-04-27T22:44:01.347Z,9.37
2019-04-27T22:46:50.335Z,7.07
2019-04-27T22:49:38.687Z,7.77
2019-04-27T22:52:26.244Z,8.17
2019-04-27T22:55:14.604Z,7.50
2019-04-27T22:58:08.803Z,7.73
2019-04-27T23:01:07.628Z,7.80
2019-04-27T23:03:56.517Z,6.60
2019-04-27T23:06:44.019Z,7.00
2019-04-27T23:09:32.285Z,7.33
2019-04-27T23:12:21.327Z,6.30
2019-04-27T23:15:13.176Z,7.70
2019-04-27T23:18:00.866Z,6.90
2019-04-27T23:20:48.850Z,6.73
2019-04-27T23:23:37.267Z,8.03
2019-04-27T23:26:24.919Z,7.37
2019-04-27T23:29:15.864Z,6.43
2019-04-27T23:32:08.195Z,7.00
2019-04-27T23:34:55.875Z,6.93
2019-04-27T23:37:43.455Z,6.87
2019-04-27T23:40:31.765Z,6.60
2019-04-27T23:43:20.111Z,8.90
2019-04-27T23:46:08.840Z,4.70
2019-04-27T23:48:56.572Z,5.50
2019-04-27T23:51:49.383Z,5.23
2019-04-27T23:54:37.119Z,5.23
2019-04-27T23:57:25.803Z,5.50
